createdAt,value
2023-05-14T00:00:24.701Z,48.94
2023-05-14T00:05:28.011Z,48.93
2023-05-14T00:10:49.432Z,49.63
2023-05-14T00:16:12.355Z,49.82
2023-05-14T00:21:15.552Z,50.23
2023-05-14T00:26:18.608Z,50.29
2023-05-14T00:31:21.846Z,50.58
2023-05-14T00:36:24.996Z,51.05
2023-05-14T00:41:27.938Z,50.59
2023-05-14T00:46:31.526Z,50.54
2023-05-14T00:51:34.615Z,50.81
2023-05-14T00:56:37.582Z,50.76
2023-05-14T01:01:40.562Z,50.34
2023-05-14T01:07:12.816Z,50.06
2023-05-14T01:12:45.253Z,50.11
2023-05-14T01:17:58.336Z,50.39
2023-05-14T01:23:01.271Z,50.64
2023-05-14T01:28:18.332Z,50.55
2023-05-14T01:33:25.183Z,50.55
2023-05-14T01:38:31.960Z,51.38
2023-05-14T01:43:36.006Z,52.26
2023-05-14T01:48:39.074Z,52.23
2023-05-14T01:53:42.201Z,52.05
2023-05-14T01:58:44.948Z,52.44
2023-05-14T02:03:48.020Z,53.19
2023-05-14T02:08:51.214Z,53.87
2023-05-14T02:13:54.154Z,53.86
2023-05-14T02:18:57.153Z,54.07
2023-05-14T02:24:19.960Z,54.05
2023-05-14T02:29:22.893Z,53.94
2023-05-14T02:34:26.150Z,53.65
2023-05-14T02:39:28.978Z,53.39
2023-05-14T02:44:52.410Z,52.86
2023-05-14T02:49:55.493Z,52.78
2023-05-14T02:54:58.896Z,52.75
2023-05-14T03:00:01.764Z,52.76
2023-05-14T03:05:09.508Z,52.49
2023-05-14T03:10:12.825Z,52.34
2023-05-14T03:15:15.897Z,52.26
2023-05-14T03:20:18.851Z,52.19
2023-05-14T03:25:22.282Z,51.86
2023-05-14T03:30:25.460Z,52.07
2023-05-14T03:35:28.395Z,52.31
2023-05-14T03:40:31.298Z,52.00
2023-05-14T03:45:35.688Z,52.00
2023-05-14T03:50:39.100Z,52.26
2023-05-14T03:55:42.756Z,52.55
2023-05-14T04:00:47.723Z,52.75
2023-05-14T04:05:51.445Z,52.28
2023-05-14T04:10:55.869Z,51.94
2023-05-14T04:15:59.285Z,51.76
2023-05-14T04:21:02.682Z,52.17
2023-05-14T04:26:05.637Z,51.97
2023-05-14T04:31:08.449Z,52.80
2023-05-14T04:36:11.214Z,52.81
2023-05-14T04:41:14.083Z,53.05
2023-05-14T04:46:17.213Z,51.97
2023-05-14T04:51:20.093Z,51.55
2023-05-14T04:56:22.967Z,51.54
2023-05-14T05:01:25.915Z,51.38
2023-05-14T05:06:28.866Z,51.27
2023-05-14T05:11:32.038Z,50.89
2023-05-14T05:16:35.024Z,49.72
2023-05-14T05:21:40.420Z,49.84
2023-05-14T05:26:43.161Z,49.97
2023-05-14T05:31:46.446Z,49.89
2023-05-14T05:36:49.363Z,49.33
2023-05-14T05:41:52.194Z,48.84
2023-05-14T05:46:57.512Z,48.32
2023-05-14T05:52:00.655Z,47.94
2023-05-14T05:57:03.374Z,47.88
2023-05-14T06:02:07.193Z,46.64
2023-05-14T06:07:10.720Z,46.69
2023-05-14T06:12:14.516Z,47.02
2023-05-14T06:17:18.365Z,46.68
2023-05-14T06:22:21.353Z,46.32
2023-05-14T06:27:24.214Z,45.93
2023-05-14T06:32:27.118Z,45.57
2023-05-14T06:37:30.209Z,43.70
2023-05-14T06:42:51.918Z,42.83
2023-05-14T06:47:56.161Z,42.80
2023-05-14T06:52:59.004Z,44.04
2023-05-14T06:58:01.868Z,41.72
2023-05-14T07:03:04.863Z,40.21
2023-05-14T07:08:08.144Z,40.52
2023-05-14T07:13:11.490Z,38.43
2023-05-14T07:18:14.497Z,38.51
2023-05-14T07:23:19.771Z,39.61
2023-05-14T07:28:22.897Z,39.98
2023-05-14T07:33:26.047Z,39.61
2023-05-14T07:38:29.011Z,39.31
2023-05-14T07:43:31.933Z,38.62
2023-05-14T07:48:34.919Z,38.46
2023-05-14T07:53:37.926Z,38.33
2023-05-14T07:58:41.638Z,38.61
2023-05-14T08:03:44.759Z,38.35
2023-05-14T08:08:47.855Z,37.42
2023-05-14T08:13:51.037Z,38.20
2023-05-14T08:18:53.933Z,38.07
2023-05-14T08:23:56.964Z,34.97
2023-05-14T08:28:59.991Z,34.74
2023-05-14T08:34:02.862Z,34.54
2023-05-14T08:39:07.949Z,34.65
2023-05-14T08:44:14.769Z,33.89
2023-05-14T08:49:17.663Z,33.82
2023-05-14T08:54:24.095Z,33.16
2023-05-14T08:59:27.208Z,33.86
2023-05-14T09:04:31.962Z,33.57
2023-05-14T09:09:35.149Z,33.41
2023-05-14T09:14:38.437Z,34.60
2023-05-14T09:19:42.889Z,38.16
2023-05-14T09:25:02.776Z,34.82
2023-05-14T09:30:10.234Z,36.60
2023-05-14T09:35:21.689Z,36.86
2023-05-14T09:40:25.141Z,35.96
2023-05-14T09:45:29.681Z,33.87
2023-05-14T09:50:32.918Z,31.76
2023-05-14T09:55:37.180Z,34.28
2023-05-14T10:00:40.148Z,34.84
2023-05-14T10:05:43.354Z,36.62
2023-05-14T10:10:46.194Z,39.12
2023-05-14T10:15:58.101Z,39.90
2023-05-14T10:21:05.220Z,39.50
2023-05-14T10:26:10.196Z,38.26
2023-05-14T10:31:14.487Z,36.39
2023-05-14T10:36:21.082Z,34.77
2023-05-14T10:41:24.034Z,34.54
2023-05-14T10:46:27.018Z,34.08
2023-05-14T10:51:31.645Z,32.31
2023-05-14T10:56:34.642Z,32.54
2023-05-14T11:01:41.074Z,31.96
2023-05-14T11:06:47.185Z,32.17
2023-05-14T11:12:09.036Z,34.81
2023-05-14T11:17:12.690Z,35.15
2023-05-14T11:22:15.754Z,35.91
2023-05-14T11:27:19.683Z,35.64
2023-05-14T11:32:22.938Z,35.30
2023-05-14T11:37:25.948Z,33.67
2023-05-14T11:42:47.687Z,32.41
2023-05-14T11:47:50.782Z,30.47
2023-05-14T11:52:57.509Z,32.44
2023-05-14T11:58:00.970Z,32.80
2023-05-14T12:03:04.217Z,31.29
2023-05-14T12:08:26.261Z,30.58
2023-05-14T12:13:32.728Z,31.27
2023-05-14T12:18:36.340Z,34.09
2023-05-14T12:23:39.844Z,34.72
2023-05-14T12:28:43.746Z,35.81
2023-05-14T12:33:47.936Z,33.70
2023-05-14T12:38:51.655Z,32.40
2023-05-14T12:43:54.502Z,31.54
2023-05-14T12:48:57.838Z,32.37
2023-05-14T12:54:00.728Z,33.78
2023-05-14T12:59:03.780Z,33.52
2023-05-14T13:04:06.755Z,32.64
2023-05-14T13:09:09.764Z,33.53
2023-05-14T13:14:31.447Z,35.34
2023-05-14T13:19:34.588Z,36.49
2023-05-14T13:24:37.453Z,35.84
2023-05-14T13:29:40.444Z,36.88
2023-05-14T13:34:44.378Z,37.34
2023-05-14T13:39:48.770Z,36.78
2023-05-14T13:44:52.994Z,37.01
2023-05-14T13:49:56.707Z,36.29
2023-05-14T13:54:59.632Z,34.88
2023-05-14T14:00:05.346Z,34.25
2023-05-14T14:05:10.242Z,33.98
2023-05-14T14:10:13.171Z,34.19
2023-05-14T14:15:16.116Z,34.98
2023-05-14T14:20:19.305Z,33.97
2023-05-14T14:25:22.679Z,34.80
2023-05-14T14:30:25.937Z,35.13
2023-05-14T14:35:28.926Z,35.30
2023-05-14T14:40:33.970Z,35.88
2023-05-14T14:45:37.075Z,34.65
2023-05-14T14:50:40.110Z,35.77
2023-05-14T14:55:42.926Z,37.66
2023-05-14T15:00:46.142Z,37.52
2023-05-14T15:05:49.107Z,37.11
2023-05-14T15:10:52.370Z,38.20
2023-05-14T15:15:55.387Z,37.94
2023-05-14T15:20:58.545Z,39.31
2023-05-14T15:26:01.423Z,39.31
2023-05-14T15:31:04.713Z,40.83
2023-05-14T15:36:08.408Z,41.47
2023-05-14T15:41:11.661Z,41.43
2023-05-14T15:46:14.746Z,40.74
2023-05-14T15:51:17.788Z,40.90
2023-05-14T15:56:22.211Z,41.53
2023-05-14T16:01:25.086Z,42.16
2023-05-14T16:06:28.015Z,41.32
2023-05-14T16:11:31.480Z,41.00
2023-05-14T16:16:34.398Z,42.18
2023-05-14T16:21:37.508Z,42.68
2023-05-14T16:26:40.822Z,43.13
2023-05-14T16:31:44.021Z,44.50
2023-05-14T16:36:47.325Z,45.03
2023-05-14T16:41:50.306Z,46.05
2023-05-14T16:46:53.390Z,47.77
2023-05-14T16:51:56.329Z,50.06
2023-05-14T16:56:59.315Z,50.98
2023-05-14T17:02:02.154Z,51.77
2023-05-14T17:07:06.105Z,52.03
2023-05-14T17:12:11.312Z,52.40
2023-05-14T17:17:14.201Z,52.73
2023-05-14T17:22:17.462Z,53.31
2023-05-14T17:27:20.362Z,54.06
2023-05-14T17:32:23.265Z,54.87
2023-05-14T17:37:27.425Z,55.47
2023-05-14T17:42:30.403Z,56.18
2023-05-14T17:47:33.498Z,56.44
2023-05-14T17:52:36.836Z,56.27
2023-05-14T17:57:39.916Z,56.88
2023-05-14T18:02:42.914Z,57.49
2023-05-14T18:07:45.978Z,57.93
2023-05-14T18:12:49.850Z,58.09
2023-05-14T18:17:52.950Z,58.95
2023-05-14T18:22:57.139Z,59.59
2023-05-14T18:28:00.151Z,59.90
2023-05-14T18:33:03.613Z,60.55
2023-05-14T18:38:08.157Z,61.01
2023-05-14T18:43:13.562Z,61.47
2023-05-14T18:48:16.777Z,62.17
2023-05-14T18:53:19.765Z,62.64
2023-05-14T18:58:22.807Z,63.03
2023-05-14T19:03:26.237Z,63.57
2023-05-14T19:08:29.003Z,64.21
2023-05-14T19:13:31.926Z,64.53
2023-05-14T19:18:35.156Z,64.97
2023-05-14T19:23:38.461Z,65.57
2023-05-14T19:28:41.606Z,66.07
2023-05-14T19:33:44.588Z,66.53
2023-05-14T19:38:48.560Z,67.00
2023-05-14T19:43:51.513Z,67.14
2023-05-14T19:48:54.442Z,67.84
2023-05-14T19:53:57.431Z,68.30
2023-05-14T19:59:00.335Z,68.75
2023-05-14T20:04:03.319Z,69.00
2023-05-14T20:09:06.318Z,69.70
2023-05-14T20:14:09.387Z,69.97
2023-05-14T20:19:13.884Z,70.43
2023-05-14T20:24:17.043Z,70.75
2023-05-14T20:29:20.053Z,70.93
2023-05-14T20:34:23.352Z,71.67
2023-05-14T20:39:26.234Z,72.09
2023-05-14T20:44:29.185Z,72.40
2023-05-14T20:49:32.106Z,72.64
2023-05-14T20:54:35.117Z,73.00
2023-05-14T20:59:38.434Z,73.21
2023-05-14T21:04:41.529Z,73.46
2023-05-14T21:09:50.994Z,73.91
2023-05-14T21:14:54.159Z,74.60
2023-05-14T21:19:57.238Z,74.38
2023-05-14T21:25:00.386Z,74.65
2023-05-14T21:30:03.548Z,74.99
2023-05-14T21:35:09.329Z,74.58
2023-05-14T21:40:12.823Z,75.48
2023-05-14T21:45:15.775Z,75.60
2023-05-14T21:50:20.093Z,76.03
2023-05-14T21:55:23.679Z,75.21
2023-05-14T22:00:26.834Z,76.17
2023-05-14T22:05:29.736Z,76.84
2023-05-14T22:10:32.575Z,76.06
2023-05-14T22:15:35.606Z,76.43
2023-05-14T22:20:39.288Z,76.69
2023-05-14T22:25:42.327Z,76.96
2023-05-14T22:30:45.179Z,77.16
2023-05-14T22:35:48.278Z,77.57
2023-05-14T22:40:51.364Z,77.93
2023-05-14T22:45:54.268Z,77.85
2023-05-14T22:50:57.152Z,78.04
2023-05-14T22:56:00.023Z,77.98
2023-05-14T23:01:02.985Z,78.16
2023-05-14T23:06:06.142Z,78.38
2023-05-14T23:11:09.124Z,78.26
2023-05-14T23:16:12.075Z,78.34
2023-05-14T23:21:15.246Z,78.00
2023-05-14T23:26:18.272Z,78.11
2023-05-14T23:31:21.517Z,78.85
2023-05-14T23:36:24.686Z,78.64
2023-05-14T23:41:27.591Z,79.03
2023-05-14T23:46:30.590Z,79.16
2023-05-14T23:51:33.533Z,79.36
2023-05-14T23:56:36.512Z,79.24
